createdAt,value
2022-12-08T00:00:01.702Z,3.52
2022-12-08T00:02:38.694Z,3.72
2022-12-08T00:05:24.455Z,3.60
2022-12-08T00:08:09.677Z,3.58
2022-12-08T00:10:51.537Z,3.52
2022-12-08T00:13:18.072Z,3.71
2022-12-08T00:15:44.498Z,3.79
2022-12-08T00:18:10.945Z,3.83
2022-12-08T00:20:37.473Z,3.68
2022-12-08T00:23:04.358Z,3.76
2022-12-08T00:25:31.557Z,3.80
2022-12-08T00:27:58.040Z,3.90
2022-12-08T00:30:24.772Z,3.89
2022-12-08T00:32:51.204Z,3.67
2022-12-08T00:35:17.641Z,3.75
2022-12-08T00:37:44.085Z,3.66
2022-12-08T00:40:10.629Z,3.78
2022-12-08T00:42:37.133Z,3.76
2022-12-08T00:45:03.713Z,3.80
2022-12-08T00:47:30.174Z,3.83
2022-12-08T00:49:56.609Z,3.79
2022-12-08T00:52:23.088Z,3.73
2022-12-08T00:54:49.528Z,3.75
2022-12-08T00:57:16.027Z,3.68
2022-12-08T00:59:42.448Z,3.72
2022-12-08T01:02:08.896Z,3.72
2022-12-08T01:04:35.940Z,3.68
2022-12-08T01:07:02.408Z,3.70
2022-12-08T01:09:28.879Z,3.63
2022-12-08T01:11:55.337Z,3.78
2022-12-08T01:14:21.786Z,3.67
2022-12-08T01:16:48.358Z,3.73
2022-12-08T01:19:15.553Z,3.74
2022-12-08T01:21:42.538Z,3.81
2022-12-08T01:24:12.852Z,3.83
2022-12-08T01:26:39.446Z,3.66
2022-12-08T01:29:05.908Z,3.66
2022-12-08T01:31:32.547Z,3.67
2022-12-08T01:33:58.957Z,3.66
2022-12-08T01:36:27.007Z,3.91
2022-12-08T01:38:53.909Z,4.17
2022-12-08T01:41:21.615Z,3.94
2022-12-08T01:43:51.056Z,3.95
2022-12-08T01:46:17.513Z,3.98
2022-12-08T01:48:44.018Z,3.78
2022-12-08T01:51:10.497Z,3.67
2022-12-08T01:53:37.047Z,3.87
2022-12-08T01:56:06.925Z,3.98
2022-12-08T01:58:37.807Z,3.72
2022-12-08T02:01:04.293Z,3.64
2022-12-08T02:03:42.463Z,3.59
2022-12-08T02:06:08.937Z,3.58
2022-12-08T02:08:35.967Z,3.58
2022-12-08T02:11:02.433Z,3.68
2022-12-08T02:13:28.859Z,3.85
2022-12-08T02:15:58.106Z,3.77
2022-12-08T02:18:30.599Z,3.54
2022-12-08T02:21:29.569Z,3.63
2022-12-08T02:23:59.134Z,3.86
2022-12-08T02:26:58.174Z,3.85
2022-12-08T02:29:37.665Z,3.99
2022-12-08T02:32:12.956Z,4.00
2022-12-08T02:34:43.637Z,3.73
2022-12-08T02:37:16.923Z,3.70
2022-12-08T02:39:58.131Z,3.97
2022-12-08T02:42:30.775Z,4.28
2022-12-08T02:45:04.095Z,4.08
2022-12-08T02:47:32.072Z,3.98
2022-12-08T02:49:58.861Z,4.03
2022-12-08T02:52:25.296Z,4.26
2022-12-08T02:54:53.835Z,4.24
2022-12-08T02:57:20.263Z,4.01
2022-12-08T03:00:16.463Z,3.84
2022-12-08T03:02:46.877Z,4.09
2022-12-08T03:05:25.986Z,3.93
2022-12-08T03:08:11.062Z,3.50
2022-12-08T03:10:40.736Z,3.52
2022-12-08T03:13:13.257Z,3.94
2022-12-08T03:15:40.630Z,3.57
2022-12-08T03:18:09.358Z,3.54
2022-12-08T03:20:36.067Z,3.56
2022-12-08T03:23:05.476Z,3.46
2022-12-08T03:25:33.970Z,3.29
2022-12-08T03:28:00.392Z,3.48
2022-12-08T03:30:28.647Z,3.30
2022-12-08T03:32:58.938Z,3.37
2022-12-08T03:35:30.514Z,3.33
2022-12-08T03:38:04.707Z,3.33
2022-12-08T03:40:31.378Z,3.23
2022-12-08T03:42:57.781Z,3.27
2022-12-08T03:45:24.313Z,3.13
2022-12-08T03:47:51.306Z,3.10
2022-12-08T03:50:17.954Z,3.17
2022-12-08T03:52:44.432Z,3.30
2022-12-08T03:55:10.995Z,3.15
2022-12-08T03:57:37.479Z,3.41
2022-12-08T04:00:05.114Z,3.39
2022-12-08T04:02:32.102Z,3.39
2022-12-08T04:04:58.584Z,3.26
2022-12-08T04:07:25.013Z,3.37
2022-12-08T04:09:51.485Z,3.26
2022-12-08T04:12:17.941Z,3.26
2022-12-08T04:14:44.405Z,3.25
2022-12-08T04:17:10.888Z,3.47
2022-12-08T04:19:37.323Z,3.58
2022-12-08T04:22:03.808Z,3.65
2022-12-08T04:24:30.322Z,3.64
2022-12-08T04:26:56.725Z,3.40
2022-12-08T04:29:23.310Z,3.67
2022-12-08T04:31:49.912Z,3.44
2022-12-08T04:34:16.588Z,3.52
2022-12-08T04:36:43.032Z,3.30
2022-12-08T04:39:09.513Z,3.29
2022-12-08T04:41:35.933Z,3.54
2022-12-08T04:44:02.519Z,3.55
2022-12-08T04:46:29.037Z,3.33
2022-12-08T04:48:55.493Z,3.29
2022-12-08T04:51:21.954Z,3.24
2022-12-08T04:53:48.440Z,3.42
2022-12-08T04:56:16.018Z,3.42
2022-12-08T04:58:42.663Z,3.32
2022-12-08T05:01:11.418Z,3.37
2022-12-08T05:03:37.917Z,3.44
2022-12-08T05:06:04.689Z,3.68
2022-12-08T05:08:32.113Z,3.63
2022-12-08T05:11:05.908Z,3.49
2022-12-08T05:13:32.461Z,3.70
2022-12-08T05:16:06.488Z,3.77
2022-12-08T05:18:33.272Z,3.79
2022-12-08T05:20:59.977Z,3.48
2022-12-08T05:23:26.798Z,3.20
2022-12-08T05:25:53.447Z,3.45
2022-12-08T05:28:40.719Z,3.60
2022-12-08T05:31:06.527Z,3.89
2022-12-08T05:33:32.998Z,3.93
2022-12-08T05:35:59.492Z,3.83
2022-12-08T05:38:25.953Z,3.76
2022-12-08T05:40:52.388Z,3.83
2022-12-08T05:43:18.800Z,3.88
2022-12-08T05:45:45.259Z,4.09
2022-12-08T05:48:11.721Z,4.04
2022-12-08T05:50:38.162Z,4.09
2022-12-08T05:53:04.609Z,4.20
2022-12-08T05:55:31.148Z,3.97
2022-12-08T05:57:57.564Z,3.98
2022-12-08T06:00:24.282Z,3.93
2022-12-08T06:02:50.817Z,3.78
2022-12-08T06:05:17.440Z,3.63
2022-12-08T06:07:43.977Z,4.01
2022-12-08T06:10:10.685Z,3.78
2022-12-08T06:12:37.201Z,3.80
2022-12-08T06:15:04.057Z,3.61
2022-12-08T06:17:30.463Z,3.56
2022-12-08T06:19:56.916Z,3.53
2022-12-08T06:22:23.336Z,3.58
2022-12-08T06:24:49.797Z,3.69
2022-12-08T06:27:16.240Z,3.90
2022-12-08T06:29:42.690Z,3.79
2022-12-08T06:32:09.199Z,3.82
2022-12-08T06:34:35.724Z,3.74
2022-12-08T06:37:02.187Z,3.77
2022-12-08T06:39:28.886Z,3.84
2022-12-08T06:42:14.117Z,4.31
2022-12-08T06:44:40.593Z,4.35
2022-12-08T06:47:07.054Z,4.17
2022-12-08T06:49:33.525Z,3.71
2022-12-08T06:52:00.068Z,3.61
2022-12-08T06:54:26.729Z,3.79
2022-12-08T06:56:53.269Z,3.59
2022-12-08T06:59:19.744Z,3.69
2022-12-08T07:01:46.505Z,3.88
2022-12-08T07:04:13.157Z,3.85
2022-12-08T07:06:39.694Z,4.00
2022-12-08T07:09:06.439Z,4.05
2022-12-08T07:11:32.891Z,4.35
2022-12-08T07:13:59.365Z,4.27
2022-12-08T07:16:25.939Z,4.11
2022-12-08T07:18:52.423Z,3.83
2022-12-08T07:21:18.858Z,3.89
2022-12-08T07:23:46.220Z,3.70
2022-12-08T07:26:13.227Z,3.61
2022-12-08T07:28:40.665Z,3.61
2022-12-08T07:31:08.358Z,3.50
2022-12-08T07:33:36.066Z,3.78
2022-12-08T07:36:04.516Z,3.82
2022-12-08T07:38:31.561Z,3.70
2022-12-08T07:40:58.008Z,3.71
2022-12-08T07:43:24.591Z,3.80
2022-12-08T07:45:51.168Z,3.64
2022-12-08T07:48:17.733Z,3.96
2022-12-08T07:50:44.723Z,3.98
2022-12-08T07:53:11.198Z,4.68
2022-12-08T07:55:44.250Z,4.02
2022-12-08T07:58:11.328Z,3.85
2022-12-08T08:00:37.870Z,3.79
2022-12-08T08:03:04.532Z,3.88
2022-12-08T08:05:31.069Z,3.87
2022-12-08T08:07:57.548Z,3.76
2022-12-08T08:10:24.059Z,3.71
2022-12-08T08:12:50.537Z,3.92
2022-12-08T08:15:17.835Z,3.89
2022-12-08T08:17:44.312Z,3.99
2022-12-08T08:20:11.443Z,4.08
2022-12-08T08:22:37.945Z,4.03
2022-12-08T08:25:04.541Z,3.98
2022-12-08T08:27:30.981Z,3.99
2022-12-08T08:29:57.430Z,4.08
2022-12-08T08:32:23.895Z,3.95
2022-12-08T08:34:50.828Z,3.75
2022-12-08T08:37:17.317Z,3.77
2022-12-08T08:39:43.794Z,3.70
2022-12-08T08:42:10.308Z,3.72
2022-12-08T08:44:38.834Z,3.88
2022-12-08T08:47:05.396Z,3.69
2022-12-08T08:49:31.846Z,3.72
2022-12-08T08:51:58.265Z,3.79
2022-12-08T08:54:24.718Z,3.81
2022-12-08T08:56:52.571Z,4.02
2022-12-08T08:59:19.176Z,4.81
2022-12-08T09:01:45.722Z,4.73
2022-12-08T09:04:12.294Z,4.30
2022-12-08T09:06:38.805Z,4.19
2022-12-08T09:09:05.396Z,4.20
2022-12-08T09:11:32.181Z,4.31
2022-12-08T09:13:58.713Z,4.11
2022-12-08T09:16:25.487Z,4.36
2022-12-08T09:18:52.161Z,4.10
2022-12-08T09:21:22.613Z,4.11
2022-12-08T09:23:50.096Z,4.26
2022-12-08T09:26:16.652Z,4.10
2022-12-08T09:28:46.387Z,4.11
2022-12-08T09:31:17.060Z,4.28
2022-12-08T09:33:43.721Z,3.97
2022-12-08T09:36:10.923Z,4.01
2022-12-08T09:38:38.149Z,4.26
2022-12-08T09:41:10.448Z,4.40
2022-12-08T09:44:02.598Z,4.44
2022-12-08T09:46:30.768Z,4.28
2022-12-08T09:48:58.194Z,4.16
2022-12-08T09:51:25.832Z,3.99
2022-12-08T09:53:55.061Z,4.13
2022-12-08T09:56:23.268Z,4.67
2022-12-08T09:58:55.290Z,4.36
2022-12-08T10:01:22.960Z,4.30
2022-12-08T10:03:49.682Z,4.06
2022-12-08T10:06:39.453Z,3.97
2022-12-08T10:09:23.160Z,4.00
2022-12-08T10:11:58.744Z,4.23
2022-12-08T10:14:25.163Z,4.37
2022-12-08T10:16:55.591Z,4.74
2022-12-08T10:19:23.340Z,4.62
2022-12-08T10:21:50.308Z,4.73
2022-12-08T10:24:17.212Z,4.58
2022-12-08T10:26:44.116Z,4.84
2022-12-08T10:29:13.599Z,4.53
2022-12-08T10:31:40.186Z,4.66
2022-12-08T10:34:17.872Z,4.64
2022-12-08T10:36:46.233Z,4.74
2022-12-08T10:39:28.749Z,4.48
2022-12-08T10:42:00.357Z,4.54
2022-12-08T10:44:27.148Z,4.77
2022-12-08T10:46:53.741Z,4.74
2022-12-08T10:49:28.889Z,5.13
2022-12-08T10:51:55.396Z,5.40
2022-12-08T10:54:32.309Z,4.96
2022-12-08T10:56:58.997Z,5.44
2022-12-08T10:59:25.750Z,5.24
2022-12-08T11:01:54.417Z,4.99
2022-12-08T11:04:30.993Z,4.55
2022-12-08T11:06:57.561Z,4.63
2022-12-08T11:09:26.018Z,4.66
2022-12-08T11:12:09.837Z,4.84
2022-12-08T11:14:36.254Z,5.31
2022-12-08T11:17:05.590Z,5.06
2022-12-08T11:19:36.736Z,4.84
2022-12-08T11:22:20.054Z,4.84
2022-12-08T11:24:56.233Z,5.28
2022-12-08T11:27:22.765Z,4.60
2022-12-08T11:29:49.224Z,4.99
2022-12-08T11:32:15.743Z,4.71
2022-12-08T11:34:44.775Z,4.61
2022-12-08T11:37:18.198Z,4.32
2022-12-08T11:39:47.378Z,4.23
2022-12-08T11:42:15.939Z,4.41
2022-12-08T11:44:46.708Z,4.57
2022-12-08T11:47:17.717Z,5.04
2022-12-08T11:52:22.502Z,4.95
2022-12-08T11:54:52.441Z,4.86
2022-12-08T11:57:20.902Z,5.38
2022-12-08T11:59:49.681Z,5.70
2022-12-08T12:02:24.157Z,5.52
2022-12-08T12:04:59.688Z,5.75
2022-12-08T12:07:45.263Z,5.35
2022-12-08T12:10:14.830Z,5.21
2022-12-08T12:12:58.370Z,5.31
2022-12-08T12:15:30.938Z,4.95
2022-12-08T12:18:05.411Z,5.24
2022-12-08T12:20:33.581Z,5.60
2022-12-08T12:23:06.343Z,5.63
2022-12-08T12:25:35.271Z,5.56
2022-12-08T12:28:06.958Z,5.37
2022-12-08T12:30:52.538Z,5.38
2022-12-08T12:33:19.808Z,5.30
2022-12-08T12:35:48.167Z,5.44
2022-12-08T12:38:50.039Z,5.28
2022-12-08T12:41:25.334Z,5.12
2022-12-08T12:44:11.357Z,4.95
2022-12-08T12:46:40.042Z,5.23
2022-12-08T12:49:25.093Z,5.22
2022-12-08T12:51:55.474Z,4.83
2022-12-08T12:54:26.200Z,4.67
2022-12-08T12:56:52.652Z,5.13
2022-12-08T12:59:31.161Z,5.05
2022-12-08T13:01:58.278Z,5.26
2022-12-08T13:04:33.118Z,4.96
2022-12-08T13:06:59.794Z,4.78
2022-12-08T13:09:31.745Z,4.70
2022-12-08T13:11:59.900Z,4.68
2022-12-08T13:14:28.326Z,4.74
2022-12-08T13:16:56.234Z,5.19
2022-12-08T13:19:22.866Z,5.16
2022-12-08T13:21:49.305Z,5.17
2022-12-08T13:24:27.721Z,4.91
2022-12-08T13:27:03.204Z,4.71
2022-12-08T13:29:30.109Z,4.85
2022-12-08T13:31:56.984Z,4.67
2022-12-08T13:34:42.061Z,4.60
2022-12-08T13:37:11.492Z,4.79
2022-12-08T13:39:40.830Z,4.58
2022-12-08T13:42:16.515Z,4.41
2022-12-08T13:48:20.860Z,4.51
2022-12-08T13:59:20.374Z,4.34
2022-12-08T14:01:50.688Z,4.57
2022-12-08T14:04:47.494Z,4.42
2022-12-08T14:07:09.474Z,4.53
2022-12-08T14:09:37.132Z,4.61
2022-12-08T14:12:06.558Z,4.51
2022-12-08T14:15:01.848Z,4.33
2022-12-08T14:17:26.095Z,4.35
2022-12-08T14:20:00.335Z,4.27
2022-12-08T14:22:33.876Z,4.34
2022-12-08T14:25:00.400Z,4.22
2022-12-08T14:27:29.990Z,4.33
2022-12-08T14:29:57.856Z,4.96
2022-12-08T14:32:34.831Z,5.06
2022-12-08T14:35:07.636Z,4.64
2022-12-08T14:37:54.667Z,4.65
2022-12-08T14:40:23.925Z,4.64
2022-12-08T14:43:05.029Z,4.48
2022-12-08T14:45:34.984Z,4.82
2022-12-08T14:48:20.195Z,4.57
2022-12-08T14:50:57.356Z,4.72
2022-12-08T14:53:24.206Z,4.37
2022-12-08T14:55:51.377Z,4.20
2022-12-08T14:58:25.721Z,4.16
2022-12-08T15:00:54.574Z,4.36
2022-12-08T15:03:21.855Z,4.33
2022-12-08T15:05:51.543Z,4.43
2022-12-08T15:08:18.552Z,4.44
2022-12-08T15:10:48.139Z,4.73
2022-12-08T15:13:16.322Z,4.52
2022-12-08T15:15:53.387Z,4.33
2022-12-08T15:18:31.233Z,4.38
2022-12-08T15:21:02.026Z,4.48
2022-12-08T15:23:30.680Z,4.47
2022-12-08T15:25:57.427Z,4.64
2022-12-08T15:28:29.514Z,4.70
2022-12-08T15:30:57.313Z,4.44
2022-12-08T15:33:24.023Z,4.62
2022-12-08T15:35:50.873Z,4.43
2022-12-08T15:38:28.640Z,4.37
2022-12-08T15:40:56.090Z,4.31
2022-12-08T15:43:22.675Z,4.44
2022-12-08T15:45:58.347Z,4.70
2022-12-08T15:48:29.225Z,4.64
2022-12-08T15:50:56.381Z,4.54
2022-12-08T15:53:22.843Z,4.54
2022-12-08T15:56:18.992Z,4.66
2022-12-08T15:58:54.275Z,4.59
2022-12-08T16:01:22.111Z,4.67
2022-12-08T16:09:25.477Z,4.63
2022-12-08T16:12:10.834Z,4.69
2022-12-08T16:17:24.498Z,4.74
2022-12-08T16:19:51.018Z,4.59
2022-12-08T16:25:22.393Z,4.39
2022-12-08T16:28:01.453Z,4.40
2022-12-08T16:30:29.970Z,4.29
2022-12-08T16:32:56.366Z,4.31
2022-12-08T16:35:22.788Z,4.32
2022-12-08T16:37:49.259Z,4.17
2022-12-08T16:40:15.764Z,4.35
2022-12-08T16:42:49.992Z,4.26
2022-12-08T16:45:16.638Z,4.22
2022-12-08T16:47:47.825Z,4.20
2022-12-08T16:50:19.554Z,4.24
2022-12-08T16:52:46.554Z,4.14
2022-12-08T16:55:17.517Z,4.01
2022-12-08T16:57:44.528Z,3.99
2022-12-08T17:00:17.369Z,4.11
2022-12-08T17:02:45.284Z,4.27
2022-12-08T17:05:16.139Z,4.31
2022-12-08T17:07:43.897Z,4.25
2022-12-08T17:10:12.301Z,4.14
2022-12-08T17:12:38.762Z,4.21
2022-12-08T17:15:06.556Z,4.13
2022-12-08T17:17:35.297Z,4.20
2022-12-08T17:20:04.883Z,4.26
2022-12-08T17:22:32.290Z,4.38
2022-12-08T17:24:58.828Z,4.32
2022-12-08T17:27:25.314Z,4.35
2022-12-08T17:29:51.737Z,4.33
2022-12-08T17:32:18.718Z,4.29
2022-12-08T17:34:45.669Z,4.40
2022-12-08T17:37:12.226Z,4.36
2022-12-08T17:39:38.806Z,4.48
2022-12-08T17:42:07.169Z,4.43
2022-12-08T17:44:33.735Z,4.46
2022-12-08T17:47:00.387Z,4.44
2022-12-08T17:49:29.717Z,4.51
2022-12-08T17:51:57.589Z,4.62
2022-12-08T17:54:24.537Z,4.61
2022-12-08T17:56:51.435Z,4.39
2022-12-08T17:59:18.393Z,4.46
2022-12-08T18:01:45.107Z,4.45
2022-12-08T18:04:12.254Z,4.57
2022-12-08T18:06:39.278Z,4.45
2022-12-08T18:09:06.984Z,4.47
2022-12-08T18:11:34.277Z,4.35
2022-12-08T18:14:03.208Z,4.32
2022-12-08T18:16:30.454Z,4.36
2022-12-08T18:18:56.972Z,4.47
2022-12-08T18:21:23.949Z,4.72
2022-12-08T18:23:50.669Z,4.34
2022-12-08T18:26:17.165Z,4.36
2022-12-08T18:28:43.653Z,4.55
2022-12-08T18:31:11.697Z,4.39
2022-12-08T18:33:39.806Z,4.24
2022-12-08T18:36:10.489Z,4.38
2022-12-08T18:38:37.701Z,4.32
2022-12-08T18:41:07.163Z,4.25
2022-12-08T18:43:34.014Z,4.20
2022-12-08T18:46:01.419Z,4.48
2022-12-08T18:48:27.972Z,4.56
2022-12-08T18:50:54.397Z,4.61
2022-12-08T18:53:20.891Z,4.57
2022-12-08T18:55:47.541Z,4.53
2022-12-08T18:58:14.505Z,4.63
2022-12-08T19:00:40.960Z,4.60
2022-12-08T19:03:07.457Z,4.58
2022-12-08T19:05:33.950Z,4.52
2022-12-08T19:08:00.483Z,4.64
2022-12-08T19:10:27.018Z,4.35
2022-12-08T19:12:53.591Z,4.48
2022-12-08T19:15:20.436Z,4.27
2022-12-08T19:17:46.854Z,4.01
2022-12-08T19:20:13.550Z,4.43
2022-12-08T19:22:40.032Z,4.41
2022-12-08T19:25:06.646Z,4.06
2022-12-08T19:27:34.173Z,4.18
2022-12-08T19:30:00.608Z,4.26
2022-12-08T19:32:27.130Z,4.07
2022-12-08T19:34:53.652Z,4.16
2022-12-08T19:37:20.085Z,3.98
2022-12-08T19:40:05.744Z,4.29
2022-12-08T19:42:51.171Z,4.16
2022-12-08T19:45:19.920Z,4.37
2022-12-08T19:47:46.638Z,4.53
2022-12-08T19:50:49.777Z,4.43
2022-12-08T19:53:16.701Z,4.41
2022-12-08T19:55:43.831Z,4.28
2022-12-08T19:58:11.112Z,4.27
2022-12-08T20:00:39.114Z,4.36
2022-12-08T20:03:06.257Z,4.32
2022-12-08T20:05:33.869Z,4.17
2022-12-08T20:08:00.344Z,4.22
2022-12-08T20:10:33.778Z,4.16
2022-12-08T20:13:19.067Z,4.19
2022-12-08T20:15:45.698Z,4.17
2022-12-08T20:18:12.823Z,4.00
2022-12-08T20:20:39.672Z,4.09
2022-12-08T20:23:06.485Z,3.95
2022-12-08T20:25:33.079Z,4.09
2022-12-08T20:27:59.605Z,4.16
2022-12-08T20:30:26.114Z,4.07
2022-12-08T20:32:52.566Z,3.91
2022-12-08T20:35:19.014Z,4.12
2022-12-08T20:37:45.524Z,4.08
2022-12-08T20:40:12.126Z,4.10
2022-12-08T20:42:38.576Z,4.01
2022-12-08T20:45:07.245Z,4.17
2022-12-08T20:47:34.071Z,4.12
2022-12-08T20:50:00.703Z,4.10
2022-12-08T20:52:27.238Z,3.71
2022-12-08T20:54:53.863Z,3.71
2022-12-08T20:57:20.403Z,3.71
2022-12-08T20:59:46.922Z,3.96
2022-12-08T21:02:13.454Z,4.05
2022-12-08T21:04:40.212Z,3.97
2022-12-08T21:07:08.921Z,4.23
2022-12-08T21:09:36.241Z,4.11
2022-12-08T21:12:02.854Z,4.06
2022-12-08T21:14:29.427Z,4.16
2022-12-08T21:16:56.254Z,4.20
2022-12-08T21:19:22.809Z,4.16
2022-12-08T21:21:50.809Z,4.06
2022-12-08T21:24:18.066Z,3.79
2022-12-08T21:26:45.914Z,3.98
2022-12-08T21:29:12.868Z,4.03
2022-12-08T21:31:39.817Z,4.01
2022-12-08T21:34:06.695Z,3.98
2022-12-08T21:36:33.387Z,3.89
2022-12-08T21:39:02.423Z,3.80
2022-12-08T21:41:47.701Z,4.31
2022-12-08T21:44:15.560Z,4.20
2022-12-08T21:46:42.425Z,4.01
2022-12-08T21:49:09.276Z,3.99
2022-12-08T21:51:37.901Z,4.06
2022-12-08T21:54:04.954Z,4.15
2022-12-08T21:56:31.843Z,3.99
2022-12-08T21:58:58.361Z,3.88
2022-12-08T22:01:24.947Z,4.06
2022-12-08T22:03:51.797Z,3.92
2022-12-08T22:06:18.382Z,3.67
2022-12-08T22:08:45.226Z,3.82
2022-12-08T22:11:12.163Z,3.76
2022-12-08T22:13:39.763Z,3.92
2022-12-08T22:16:08.120Z,4.02
2022-12-08T22:18:35.615Z,4.09
2022-12-08T22:21:02.568Z,3.81
2022-12-08T22:23:29.267Z,3.92
2022-12-08T22:25:59.647Z,4.06
2022-12-08T22:28:27.128Z,4.12
2022-12-08T22:30:54.794Z,4.11
2022-12-08T22:33:21.339Z,4.03
2022-12-08T22:35:57.962Z,4.08
2022-12-08T22:38:25.052Z,4.00
2022-12-08T22:40:52.242Z,4.09
2022-12-08T22:43:18.752Z,4.09
2022-12-08T22:45:45.371Z,4.02
2022-12-08T22:48:12.034Z,4.04
2022-12-08T22:50:38.627Z,3.80
2022-12-08T22:53:05.358Z,3.87
2022-12-08T22:55:31.889Z,4.02
2022-12-08T22:57:58.573Z,3.95
2022-12-08T23:00:25.110Z,4.06
2022-12-08T23:02:51.748Z,4.15
2022-12-08T23:05:18.533Z,4.08
2022-12-08T23:07:45.451Z,4.13
2022-12-08T23:10:12.282Z,4.10
2022-12-08T23:12:38.969Z,4.15
2022-12-08T23:15:05.732Z,3.91
2022-12-08T23:17:32.478Z,3.84
2022-12-08T23:19:59.244Z,3.80
2022-12-08T23:22:25.861Z,3.62
2022-12-08T23:24:52.378Z,3.56
2022-12-08T23:27:19.127Z,3.31
2022-12-08T23:29:45.837Z,3.42
2022-12-08T23:32:12.427Z,3.54
2022-12-08T23:34:38.899Z,3.48
2022-12-08T23:37:05.356Z,3.53
2022-12-08T23:39:32.089Z,3.62
2022-12-08T23:41:58.549Z,3.38
2022-12-08T23:44:25.099Z,3.57
2022-12-08T23:46:51.701Z,3.62
2022-12-08T23:49:18.241Z,3.57
2022-12-08T23:51:44.810Z,3.56
2022-12-08T23:54:11.341Z,3.61
2022-12-08T23:56:37.852Z,3.54
2022-12-08T23:59:04.323Z,3.66
